createdAt,value
2022-08-22T00:00:21.748Z,100003.32
2022-08-22T00:02:48.496Z,100032.36
2022-08-22T00:02:52.803Z,100044.27
2022-08-22T00:06:16.943Z,100001.39
2022-08-22T00:08:46.148Z,99997.54
2022-08-22T00:11:15.761Z,99988.79
2022-08-22T00:14:01.089Z,99984.17
2022-08-22T00:16:34.760Z,99987.62
2022-08-22T00:19:31.069Z,99993.86
2022-08-22T00:22:24.701Z,100000.44
2022-08-22T00:25:26.080Z,99999.52
2022-08-22T00:28:23.531Z,99998.64
2022-08-22T00:31:01.325Z,100003.42
2022-08-22T00:33:40.841Z,99998.58
2022-08-22T00:36:13.558Z,99998.94
2022-08-22T00:38:50.665Z,99993.10
2022-08-22T00:41:26.384Z,99995.89
2022-08-22T00:44:36.341Z,99994.45
2022-08-22T00:47:49.149Z,99986.72
2022-08-22T00:50:40.282Z,99989.83
2022-08-22T00:53:32.094Z,99987.91
2022-08-22T00:56:04.353Z,99992.19
2022-08-22T00:59:18.120Z,99990.21
2022-08-22T01:02:28.479Z,99992.27
2022-08-22T01:05:01.181Z,99987.71
2022-08-22T01:07:30.615Z,99984.88
2022-08-22T01:10:17.501Z,99984.70
2022-08-22T01:13:05.723Z,99980.19
2022-08-22T01:15:35.523Z,99980.85
2022-08-22T01:18:11.102Z,99979.71
2022-08-22T01:20:40.564Z,99972.41
2022-08-22T01:23:31.202Z,99976.02
2022-08-22T01:26:06.403Z,99975.02
2022-08-22T01:28:39.007Z,99976.06
2022-08-22T01:31:16.907Z,99980.13
2022-08-22T01:34:05.442Z,99981.98
2022-08-22T01:37:01.582Z,99978.42
2022-08-22T01:39:47.094Z,99982.90
2022-08-22T01:42:41.441Z,99985.48
2022-08-22T01:45:17.705Z,99987.81
2022-08-22T01:47:56.124Z,99983.05
2022-08-22T01:50:25.508Z,99984.89
2022-08-22T01:53:11.623Z,99984.02
2022-08-22T01:55:44.702Z,99976.18
2022-08-22T01:58:29.770Z,99982.75
2022-08-22T02:01:08.130Z,99979.52
2022-08-22T02:03:51.645Z,99983.27
2022-08-22T02:06:43.563Z,99992.71
2022-08-22T02:09:29.734Z,99987.50
2022-08-22T02:12:01.901Z,99995.69
2022-08-22T02:14:33.361Z,99989.59
2022-08-22T02:17:22.642Z,99991.50
2022-08-22T02:20:04.624Z,99988.40
2022-08-22T02:22:37.821Z,99991.66
2022-08-22T02:25:23.849Z,99992.78
2022-08-22T02:28:10.102Z,99993.62
2022-08-22T02:30:50.867Z,99993.13
2022-08-22T02:33:46.704Z,99996.35
2022-08-22T02:36:30.430Z,99996.67
2022-08-22T02:39:07.111Z,99994.17
2022-08-22T02:41:45.854Z,99996.48
2022-08-22T02:44:29.781Z,99996.60
2022-08-22T02:47:15.061Z,99995.26
2022-08-22T02:50:06.483Z,99994.31
2022-08-22T02:52:44.482Z,99993.97
2022-08-22T02:55:39.064Z,99999.10
2022-08-22T02:58:29.553Z,100002.28
2022-08-22T03:01:02.917Z,100002.90
2022-08-22T03:03:38.224Z,100005.77
2022-08-22T03:06:05.984Z,99998.80
2022-08-22T03:08:47.459Z,100002.58
2022-08-22T03:11:27.805Z,99997.34
2022-08-22T03:13:57.300Z,99999.48
2022-08-22T03:16:34.217Z,100004.38
2022-08-22T03:19:32.274Z,100008.40
2022-08-22T03:22:16.810Z,100006.01
2022-08-22T03:25:08.347Z,100009.31
2022-08-22T03:27:46.173Z,100010.83
2022-08-22T03:30:22.237Z,100012.58
2022-08-22T03:33:12.804Z,100014.59
2022-08-22T03:35:50.501Z,100016.30
2022-08-22T03:38:20.721Z,100018.38
2022-08-22T03:41:29.128Z,100012.27
2022-08-22T03:44:36.009Z,100006.73
2022-08-22T03:47:21.803Z,100014.77
2022-08-22T03:50:16.288Z,100016.23
2022-08-22T03:53:26.165Z,100018.40
2022-08-22T03:56:23.500Z,100018.53
2022-08-22T03:59:19.641Z,100019.19
2022-08-22T04:02:42.116Z,100014.60
2022-08-22T04:05:09.961Z,100021.41
2022-08-22T04:08:02.309Z,100016.33
2022-08-22T04:10:47.852Z,100016.70
2022-08-22T04:13:40.499Z,100023.08
2022-08-22T04:16:33.582Z,100015.27
2022-08-22T04:19:24.506Z,100015.65
2022-08-22T04:22:09.869Z,100017.82
2022-08-22T04:25:08.342Z,100021.97
2022-08-22T04:28:02.629Z,100020.41
2022-08-22T04:30:44.123Z,100024.00
2022-08-22T04:33:18.422Z,100024.03
2022-08-22T04:36:14.762Z,100022.58
2022-08-22T04:38:44.336Z,100021.31
2022-08-22T04:41:20.323Z,100015.57
2022-08-22T04:44:07.144Z,100015.15
2022-08-22T04:46:45.761Z,100018.59
2022-08-22T04:49:26.823Z,100020.09
2022-08-22T04:52:29.455Z,100021.16
2022-08-22T04:55:07.974Z,100016.20
2022-08-22T04:57:48.067Z,100021.47
2022-08-22T05:00:15.842Z,100021.73
2022-08-22T05:02:56.108Z,100020.22
2022-08-22T05:05:33.582Z,100027.10
2022-08-22T05:08:01.345Z,100026.23
2022-08-22T05:10:38.862Z,100027.10
2022-08-22T05:13:12.399Z,100028.27
2022-08-22T05:15:42.702Z,100028.43
2022-08-22T05:18:16.569Z,100027.53
2022-08-22T05:20:46.203Z,100033.83
2022-08-22T05:23:44.284Z,100035.33
2022-08-22T05:26:12.837Z,100028.59
2022-08-22T05:28:50.180Z,100033.39
2022-08-22T05:31:26.113Z,100033.67
2022-08-22T05:34:04.883Z,100036.64
2022-08-22T05:36:35.739Z,100043.48
2022-08-22T05:39:06.786Z,100049.94
2022-08-22T05:41:36.797Z,100046.77
2022-08-22T05:44:04.757Z,100046.92
2022-08-22T05:46:41.640Z,100050.42
2022-08-22T05:49:19.861Z,100046.52
2022-08-22T05:51:54.885Z,100051.41
2022-08-22T05:54:33.601Z,100054.73
2022-08-22T05:57:29.026Z,100052.39
2022-08-22T06:00:20.387Z,100056.33
2022-08-22T06:03:06.843Z,100058.48
2022-08-22T06:05:38.260Z,100059.84
2022-08-22T06:08:12.743Z,100060.98
2022-08-22T06:10:48.441Z,100066.34
2022-08-22T06:13:24.744Z,100065.11
2022-08-22T06:16:06.309Z,100067.31
2022-08-22T06:18:34.408Z,100064.96
2022-08-22T06:21:07.394Z,100065.05
2022-08-22T06:23:39.821Z,100062.60
2022-08-22T06:26:20.749Z,100064.39
2022-08-22T06:28:55.191Z,100061.77
2022-08-22T06:31:31.401Z,100062.56
2022-08-22T06:34:22.921Z,100068.18
2022-08-22T06:36:51.209Z,100068.05
2022-08-22T06:39:24.487Z,100062.06
2022-08-22T06:41:56.990Z,100063.02
2022-08-22T06:44:34.061Z,100060.65
2022-08-22T06:47:04.838Z,100064.87
2022-08-22T06:49:33.669Z,100068.06
2022-08-22T06:52:03.740Z,100070.47
2022-08-22T06:54:34.529Z,100072.11
2022-08-22T06:57:03.859Z,100067.05
2022-08-22T06:59:31.738Z,100068.70
2022-08-22T07:02:04.711Z,100067.72
2022-08-22T07:04:31.850Z,100074.81
2022-08-22T07:07:00.404Z,100074.00
2022-08-22T07:09:31.660Z,100073.34
2022-08-22T07:12:02.322Z,100067.86
2022-08-22T07:14:43.270Z,100069.20
2022-08-22T07:17:18.295Z,100068.83
2022-08-22T07:19:59.689Z,100063.92
2022-08-22T07:22:32.050Z,100063.26
2022-08-22T07:25:13.442Z,100061.86
2022-08-22T07:27:53.565Z,100060.88
2022-08-22T07:30:27.431Z,100065.70
2022-08-22T07:33:25.126Z,100072.77
2022-08-22T07:36:16.379Z,100071.58
2022-08-22T07:38:48.146Z,100072.55
2022-08-22T07:41:24.919Z,100071.17
2022-08-22T07:44:19.303Z,100064.74
2022-08-22T07:47:00.787Z,100069.75
2022-08-22T07:49:34.054Z,100066.77
2022-08-22T07:52:07.979Z,100064.54
2022-08-22T07:54:50.002Z,100065.86
2022-08-22T07:57:28.925Z,100067.48
2022-08-22T07:59:58.317Z,100072.73
2022-08-22T08:02:25.680Z,100073.36
2022-08-22T08:04:54.859Z,100077.31
2022-08-22T08:07:25.023Z,100078.23
2022-08-22T08:10:12.413Z,100078.34
2022-08-22T08:12:43.966Z,100079.61
2022-08-22T08:15:22.430Z,100079.77
2022-08-22T08:17:55.374Z,100080.25
2022-08-22T08:20:24.656Z,100079.07
2022-08-22T08:22:53.855Z,100077.62
2022-08-22T08:25:24.570Z,100085.34
2022-08-22T08:28:10.494Z,100086.60
2022-08-22T08:30:47.041Z,100088.27
2022-08-22T08:33:25.674Z,100081.56
2022-08-22T08:36:21.088Z,100081.91
2022-08-22T08:39:14.149Z,100084.75
2022-08-22T08:42:02.274Z,100083.00
2022-08-22T08:44:42.226Z,100078.48
2022-08-22T08:47:34.065Z,100072.96
2022-08-22T08:50:25.578Z,100072.59
2022-08-22T08:53:07.057Z,100073.27
2022-08-22T08:55:42.508Z,100073.06
2022-08-22T08:58:21.325Z,100074.56
2022-08-22T09:01:30.829Z,100076.54
2022-08-22T09:04:16.372Z,100074.90
2022-08-22T09:07:06.646Z,100073.96
2022-08-22T09:10:11.689Z,100078.36
2022-08-22T09:12:56.494Z,100074.02
2022-08-22T09:15:54.935Z,100070.91
2022-08-22T09:18:58.120Z,100068.19
2022-08-22T09:22:03.676Z,100068.46
2022-08-22T09:24:42.702Z,100063.52
2022-08-22T09:27:31.340Z,100062.44
2022-08-22T09:30:07.633Z,100068.77
2022-08-22T09:32:54.320Z,100067.23
2022-08-22T09:35:24.940Z,100067.52
2022-08-22T09:38:03.696Z,100069.30
2022-08-22T09:40:52.541Z,100066.91
2022-08-22T09:43:24.224Z,100074.17
2022-08-22T09:46:01.936Z,100071.11
2022-08-22T09:48:31.503Z,100073.11
2022-08-22T09:51:32.386Z,100072.81
2022-08-22T09:54:14.742Z,100068.94
2022-08-22T09:56:50.179Z,100070.27
2022-08-22T09:59:36.380Z,100066.96
2022-08-22T10:02:28.823Z,100065.14
2022-08-22T10:04:58.190Z,100064.92
2022-08-22T10:07:54.866Z,100061.08
2022-08-22T10:10:54.711Z,100059.77
2022-08-22T10:13:57.317Z,100062.28
2022-08-22T10:17:04.961Z,100062.70
2022-08-22T10:19:42.874Z,100058.84
2022-08-22T10:22:36.670Z,100058.55
2022-08-22T10:25:34.504Z,100056.43
2022-08-22T10:28:10.464Z,100056.97
2022-08-22T10:31:03.617Z,100058.58
2022-08-22T10:33:51.161Z,100066.08
2022-08-22T10:36:30.841Z,100063.86
2022-08-22T10:39:00.420Z,100065.44
2022-08-22T10:41:36.062Z,100065.86
2022-08-22T10:44:17.746Z,100062.42
2022-08-22T10:47:06.510Z,100064.33
2022-08-22T10:49:53.422Z,100063.20
2022-08-22T10:52:24.858Z,100067.95
2022-08-22T10:55:20.781Z,100066.79
2022-08-22T10:58:05.967Z,100061.44
2022-08-22T11:00:46.034Z,100059.88
2022-08-22T11:03:55.861Z,100059.72
2022-08-22T11:07:15.543Z,100060.83
2022-08-22T11:09:43.299Z,100059.13
2022-08-22T11:12:16.704Z,100057.98
2022-08-22T11:15:05.964Z,100061.11
2022-08-22T11:18:03.909Z,100058.73
2022-08-22T11:20:57.205Z,100059.13
2022-08-22T11:23:33.163Z,100059.98
2022-08-22T11:26:07.268Z,100060.97
2022-08-22T11:28:39.943Z,100062.27
2022-08-22T11:31:31.844Z,100069.42
2022-08-22T11:34:28.852Z,100068.75
2022-08-22T11:37:13.383Z,100069.43
2022-08-22T11:39:58.038Z,100066.01
2022-08-22T11:43:01.058Z,100066.60
2022-08-22T11:45:46.422Z,100066.50
2022-08-22T11:48:56.676Z,100071.16
2022-08-22T11:51:46.363Z,100071.52
2022-08-22T11:54:47.084Z,100073.04
2022-08-22T11:57:30.107Z,100075.80
2022-08-22T12:00:11.087Z,100073.71
2022-08-22T12:03:12.638Z,100076.66
2022-08-22T12:05:47.022Z,100074.48
2022-08-22T12:08:48.914Z,100071.72
2022-08-22T12:11:32.377Z,100076.10
2022-08-22T12:14:06.358Z,100076.52
2022-08-22T12:17:01.261Z,100077.77
2022-08-22T12:19:48.918Z,100073.85
2022-08-22T12:23:02.502Z,100074.05
2022-08-22T12:25:51.895Z,100071.08
2022-08-22T12:28:40.142Z,100073.60
2022-08-22T12:31:13.137Z,100067.89
2022-08-22T12:34:12.060Z,100069.98
2022-08-22T12:36:54.608Z,100069.70
2022-08-22T12:39:24.333Z,100071.92
2022-08-22T12:42:06.770Z,100068.87
2022-08-22T12:44:40.664Z,100067.70
2022-08-22T12:47:07.302Z,100068.42
2022-08-22T12:50:04.763Z,100068.81
2022-08-22T12:52:58.429Z,100065.73
2022-08-22T12:55:55.279Z,100067.58
2022-08-22T12:58:29.489Z,100065.11
2022-08-22T13:01:04.577Z,100067.34
2022-08-22T13:03:40.785Z,100066.24
2022-08-22T13:06:35.184Z,100063.20
2022-08-22T13:09:11.342Z,100064.05
2022-08-22T13:11:43.089Z,100065.36
2022-08-22T13:14:18.964Z,100064.69
2022-08-22T13:16:51.888Z,100068.64
2022-08-22T13:19:28.723Z,100068.36
2022-08-22T13:22:00.467Z,100066.77
2022-08-22T13:24:41.565Z,100066.05
2022-08-22T13:27:52.516Z,100064.89
2022-08-22T13:30:23.982Z,100064.17
2022-08-22T13:32:53.692Z,100062.50
2022-08-22T13:35:33.556Z,100060.93
2022-08-22T13:38:12.987Z,100064.69
2022-08-22T13:40:45.843Z,100063.77
2022-08-22T13:43:24.485Z,100067.64
2022-08-22T13:46:01.933Z,100064.70
2022-08-22T13:48:49.472Z,100061.19
2022-08-22T13:51:19.202Z,100058.82
2022-08-22T13:54:00.763Z,100060.92
2022-08-22T13:56:35.612Z,100059.15
2022-08-22T13:59:05.642Z,100058.41
2022-08-22T14:01:49.171Z,100057.29
2022-08-22T14:04:36.279Z,100059.11
2022-08-22T14:07:05.814Z,100053.75
2022-08-22T14:09:38.163Z,100050.61
2022-08-22T14:12:21.799Z,100052.46
2022-08-22T14:14:55.806Z,100050.14
2022-08-22T14:17:34.238Z,100051.29
2022-08-22T14:20:31.954Z,100051.15
2022-08-22T14:23:04.905Z,100051.41
2022-08-22T14:25:35.946Z,100049.11
2022-08-22T14:28:09.341Z,100050.98
2022-08-22T14:30:54.377Z,100051.23
2022-08-22T14:33:32.173Z,100050.06
2022-08-22T14:36:04.484Z,100045.75
2022-08-22T14:38:31.079Z,100046.46
2022-08-22T14:41:08.953Z,100043.78
2022-08-22T14:44:00.399Z,100046.86
2022-08-22T14:46:57.163Z,100046.57
2022-08-22T14:49:32.484Z,100050.99
2022-08-22T14:52:04.884Z,100046.63
2022-08-22T14:54:32.969Z,100043.89
2022-08-22T14:57:00.905Z,100045.38
2022-08-22T14:59:46.687Z,100046.35
2022-08-22T15:02:29.804Z,100046.36
2022-08-22T15:05:01.383Z,100047.73
2022-08-22T15:07:32.620Z,100047.04
2022-08-22T15:10:17.782Z,100048.81
2022-08-22T15:12:54.908Z,100048.71
2022-08-22T15:15:52.541Z,100046.23
2022-08-22T15:18:30.234Z,100049.54
2022-08-22T15:21:08.731Z,100048.77
2022-08-22T15:23:45.164Z,100047.33
2022-08-22T15:26:26.907Z,100044.09
2022-08-22T15:29:04.817Z,100043.16
2022-08-22T15:31:31.743Z,100041.52
2022-08-22T15:34:23.089Z,100039.61
2022-08-22T15:37:14.333Z,100038.31
2022-08-22T15:40:07.464Z,100041.90
2022-08-22T15:42:56.964Z,100036.71
2022-08-22T15:45:34.844Z,100036.99
2022-08-22T15:48:05.042Z,100038.65
2022-08-22T15:50:39.559Z,100040.37
2022-08-22T15:53:19.313Z,100043.90
2022-08-22T15:56:11.868Z,100041.50
2022-08-22T15:58:48.573Z,100038.71
2022-08-22T16:01:22.396Z,100037.05
2022-08-22T16:04:12.327Z,100037.97
2022-08-22T16:06:52.148Z,100035.66
2022-08-22T16:09:28.936Z,100030.75
2022-08-22T16:11:56.489Z,100036.03
2022-08-22T16:14:33.770Z,100037.82
2022-08-22T16:17:07.785Z,100043.09
2022-08-22T16:19:37.951Z,100040.89
2022-08-22T16:22:06.921Z,100040.98
2022-08-22T16:24:56.882Z,100041.81
2022-08-22T16:27:25.782Z,100045.02
2022-08-22T16:30:03.462Z,100042.83
2022-08-22T16:32:30.036Z,100043.84
2022-08-22T16:34:56.624Z,100050.71
2022-08-22T16:37:47.802Z,100049.09
2022-08-22T16:40:20.437Z,100044.07
2022-08-22T16:42:51.602Z,100039.61
2022-08-22T16:45:23.971Z,100046.27
2022-08-22T16:47:56.711Z,100042.80
2022-08-22T16:50:30.869Z,100042.98
2022-08-22T16:52:59.233Z,100042.40
2022-08-22T16:55:29.657Z,100038.55
2022-08-22T16:58:17.580Z,100046.63
2022-08-22T17:01:18.068Z,100049.89
2022-08-22T17:04:02.664Z,100056.69
2022-08-22T17:06:47.630Z,100056.14
2022-08-22T17:09:32.869Z,100058.08
2022-08-22T17:12:02.536Z,100059.17
2022-08-22T17:14:56.712Z,100059.59
2022-08-22T17:17:40.871Z,100063.48
2022-08-22T17:20:10.203Z,100060.05
2022-08-22T17:23:02.241Z,100064.42
2022-08-22T17:25:55.791Z,100065.59
2022-08-22T17:28:54.871Z,100065.89
2022-08-22T17:31:36.260Z,100071.09
2022-08-22T17:34:21.209Z,100067.63
2022-08-22T17:36:57.573Z,100063.39
2022-08-22T17:39:54.098Z,100065.46
2022-08-22T17:42:53.480Z,100066.20
2022-08-22T17:45:40.060Z,100066.42
2022-08-22T17:48:18.452Z,100070.20
2022-08-22T17:50:57.469Z,100069.73
2022-08-22T17:53:31.053Z,100068.47
2022-08-22T17:56:34.390Z,100067.73
2022-08-22T17:59:24.755Z,100068.66
2022-08-22T18:02:00.182Z,100070.07
2022-08-22T18:04:58.593Z,100064.00
2022-08-22T18:07:32.423Z,100068.51
2022-08-22T18:10:01.905Z,100070.59
2022-08-22T18:12:34.358Z,100070.33
2022-08-22T18:15:09.206Z,100071.68
2022-08-22T18:17:41.434Z,100077.46
2022-08-22T18:20:17.359Z,100072.10
2022-08-22T18:22:49.434Z,100075.23
2022-08-22T18:25:18.707Z,100075.38
2022-08-22T18:27:57.261Z,100077.71
2022-08-22T18:30:51.893Z,100079.14
2022-08-22T18:33:31.059Z,100078.18
2022-08-22T18:36:23.161Z,100076.94
2022-08-22T18:38:59.921Z,100076.80
2022-08-22T18:41:38.661Z,100076.32
2022-08-22T18:44:18.352Z,100076.84
2022-08-22T18:46:53.299Z,100076.41
2022-08-22T18:49:20.185Z,100073.48
2022-08-22T18:52:15.324Z,100076.89
2022-08-22T18:55:09.782Z,100079.67
2022-08-22T18:58:01.466Z,100080.22
2022-08-22T19:00:53.166Z,100078.13
2022-08-22T19:03:43.721Z,100081.15
2022-08-22T19:06:37.622Z,100082.50
2022-08-22T19:09:31.729Z,100087.35
2022-08-22T19:12:17.251Z,100084.54
2022-08-22T19:15:22.185Z,100079.31
2022-08-22T19:18:02.964Z,100071.58
2022-08-22T19:20:57.279Z,100069.05
2022-08-22T19:23:37.607Z,100073.83
2022-08-22T19:26:29.460Z,100071.10
2022-08-22T19:29:21.462Z,100071.10
2022-08-22T19:31:54.589Z,100075.23
2022-08-22T19:34:25.411Z,100075.20
2022-08-22T19:37:32.255Z,100075.79
2022-08-22T19:40:06.518Z,100074.58
2022-08-22T19:42:35.904Z,100070.03
2022-08-22T19:45:26.616Z,100070.10
2022-08-22T19:48:24.490Z,100071.36
2022-08-22T19:51:08.102Z,100081.09
2022-08-22T19:53:43.063Z,100070.34
2022-08-22T19:56:53.083Z,100072.38
2022-08-22T20:00:00.080Z,100077.17
2022-08-22T20:02:54.317Z,100077.95
2022-08-22T20:05:28.219Z,100081.16
2022-08-22T20:08:21.109Z,100079.70
2022-08-22T20:11:18.260Z,100078.77
2022-08-22T20:13:45.421Z,100078.01
2022-08-22T20:16:21.387Z,100081.06
2022-08-22T20:19:05.108Z,100078.90
2022-08-22T20:21:44.245Z,100068.55
2022-08-22T20:24:20.602Z,100067.73
2022-08-22T20:27:12.232Z,100065.45
2022-08-22T20:29:39.745Z,100059.43
2022-08-22T20:32:07.039Z,100058.13
2022-08-22T20:34:37.596Z,100057.67
2022-08-22T20:37:27.042Z,100055.04
2022-08-22T20:40:25.785Z,100054.80
2022-08-22T20:43:21.181Z,100051.62
2022-08-22T20:46:18.826Z,100052.50
2022-08-22T20:48:47.803Z,100038.31
2022-08-22T20:51:17.581Z,100038.02
2022-08-22T20:53:54.352Z,100042.14
2022-08-22T20:56:52.699Z,100041.09
2022-08-22T20:59:29.480Z,100042.84
2022-08-22T21:02:06.963Z,100038.10
2022-08-22T21:04:50.895Z,100040.38
2022-08-22T21:07:28.484Z,100035.01
2022-08-22T21:10:22.556Z,100030.79
2022-08-22T21:13:05.341Z,100035.56
2022-08-22T21:15:43.860Z,100030.75
2022-08-22T21:18:28.089Z,100036.80
2022-08-22T21:21:17.445Z,100037.71
2022-08-22T21:24:00.037Z,100031.83
2022-08-22T21:26:33.138Z,100031.27
2022-08-22T21:29:04.660Z,100023.88
2022-08-22T21:31:34.409Z,100022.80
2022-08-22T21:34:01.314Z,100024.58
2022-08-22T21:36:31.152Z,100020.86
2022-08-22T21:39:03.585Z,100018.09
2022-08-22T21:41:37.013Z,100021.02
2022-08-22T21:44:24.940Z,100017.55
2022-08-22T21:46:52.397Z,100019.30
2022-08-22T21:49:20.914Z,100019.52
2022-08-22T21:51:48.829Z,100016.54
2022-08-22T21:54:20.493Z,100019.11
2022-08-22T21:56:48.044Z,100021.01
2022-08-22T21:59:58.850Z,100017.96
2022-08-22T22:02:39.934Z,100013.89
2022-08-22T22:05:15.381Z,100015.39
2022-08-22T22:07:44.128Z,100016.02
2022-08-22T22:10:14.036Z,100020.33
2022-08-22T22:12:42.131Z,100022.46
2022-08-22T22:15:12.942Z,100022.73
2022-08-22T22:17:39.335Z,100018.91
2022-08-22T22:20:06.989Z,100018.65
2022-08-22T22:22:33.534Z,100011.80
2022-08-22T22:25:04.600Z,100014.64
2022-08-22T22:27:31.395Z,100013.30
2022-08-22T22:29:57.819Z,100009.11
2022-08-22T22:32:24.239Z,100009.65
2022-08-22T22:34:50.659Z,100002.87
2022-08-22T22:37:17.145Z,100006.80
2022-08-22T22:39:43.585Z,100009.38
2022-08-22T22:42:10.505Z,100011.64
2022-08-22T22:44:36.911Z,100012.23
2022-08-22T22:47:03.760Z,100008.75
2022-08-22T22:49:31.924Z,100012.10
2022-08-22T22:51:59.678Z,100013.33
2022-08-22T22:54:27.974Z,100010.19
2022-08-22T22:56:56.689Z,100005.42
2022-08-22T22:59:26.269Z,99999.88
2022-08-22T23:02:08.279Z,99997.18
2022-08-22T23:04:37.925Z,99995.16
2022-08-22T23:07:05.534Z,99994.54
2022-08-22T23:09:38.762Z,99990.72
2022-08-22T23:12:11.819Z,99990.97
2022-08-22T23:14:38.453Z,99995.33
2022-08-22T23:17:05.408Z,99994.56
2022-08-22T23:19:32.743Z,99989.07
2022-08-22T23:22:00.978Z,99980.02
2022-08-22T23:24:29.954Z,99978.48
2022-08-22T23:26:56.905Z,99980.75
2022-08-22T23:29:24.495Z,99974.48
2022-08-22T23:31:56.474Z,99973.09
2022-08-22T23:34:26.750Z,99974.71
2022-08-22T23:36:55.253Z,99974.84
2022-08-22T23:39:23.231Z,99971.91
2022-08-22T23:41:50.849Z,99977.07
2022-08-22T23:44:22.678Z,99975.41
2022-08-22T23:46:49.381Z,99977.19
2022-08-22T23:49:15.998Z,99978.98
2022-08-22T23:51:43.419Z,99980.11
2022-08-22T23:54:09.903Z,99984.15
2022-08-22T23:56:42.440Z,99984.40
2022-08-22T23:59:12.699Z,99985.17
